• Join FlightAware (Why Join?)
  • Login
  • US Flag 
10:53PM EDT


 

Airport Tracker/Info


-or-


 

Live Flight TrackerFlight Track Log ✈ DAL6119 ✈ 10-May-2013 ✈ KSDF - KLGA

Flight Track Log - Related Links

Times and Time Zones

All times are in EDT time to prevent confusion due to time zone crossing. See the DAL6119 flight status page for this flight to view local times or setup timezone preferences in your user account.

Time Position Orientation Groundspeed Altitude Reporting Facility
EDT Latitude Longitude Course Direction KTS MPH feet Rate Location/Type
08:08PM 38.1000 -85.7000 96° East 216 249 3,600  Level Louisville TRACON
08:09PM 38.0811 -85.6475 115° Southeast 268 308 5,100 2,220 Climbing Indianapolis Center
08:10PM 38.0563 -85.2263 103° East  Level FlightAware Approximate
08:10PM 38.0836 -85.5483 88° East 280 322 7,500  Level Indianapolis Center
08:11PM 38.0333 -85.0848 90° East  Level FlightAware Approximate
08:11PM 38.0767 -85.4450 95° East 291 335 10,000  Level Indianapolis Center
08:12PM 38.0160 -84.9416 96° East  Level FlightAware Approximate
08:12PM 38.0717 -85.3319 93° East 316 364 12,100  Level Indianapolis Center
08:13PM 38.0047 -84.8062 96° East  Level FlightAware Approximate
08:13PM 38.0644 -85.2111 94° East 339 390 14,100  Level Indianapolis Center
08:14PM 38.0575 -85.0900 94° East 356 410 15,600 1,440 Climbing Indianapolis Center
08:15PM 38.0508 -84.9550 94° East 379 436 17,100 1,560 Climbing Indianapolis Center
08:16PM 38.0419 -84.7925 94° East 393 452 18,900 1,620 Climbing Indianapolis Center
08:17PM 38.0333 -84.6494 94° East 402 463 20,400 1,440 Climbing Indianapolis Center
08:19PM 38.0161 -84.3528 94° East 420 483 23,400 1,440 Climbing Indianapolis Center
08:20PM 38.0067 -84.2019 94° East 426 490 24,900 1,380 Climbing Indianapolis Center
08:21PM 37.9978 -84.0508 94° East 429 494 26,300 1,380 Climbing Indianapolis Center
08:22PM 37.9881 -83.9011 95° East 426 490 27,800 1,260 Climbing Indianapolis Center
08:23PM 37.9806 -83.7481 94° East 431 496 28,900 1,020 Climbing Indianapolis Center
08:24PM 37.9689 -83.5919 95° East 439 505 29,900 1,080 Climbing Indianapolis Center
08:25PM 37.9567 -83.4053 95° East 452 520 31,200 1,140 Climbing Indianapolis Center
08:26PM 37.9458 -83.2425 95° East 464 534 32,300 1,020 Climbing Indianapolis Center
08:27PM 37.9336 -83.0775 95° East 467 537 33,400 1,020 Climbing Indianapolis Center
08:28PM 37.9222 -82.9097 95° East 474 545 34,500 780 Climbing Indianapolis Center
08:29PM 37.9100 -82.7444 95° East 471 542 35,000 240 Climbing Indianapolis Center
08:30PM 37.8972 -82.5708 95° East 488 562 35,000  Level Indianapolis Center
08:31PM 37.8850 -82.4058 95° East 474 545 35,000  Level Indianapolis Center
08:32PM 37.8717 -82.2367 96° East 480 552 35,000  Level Indianapolis Center
08:33PM 37.8592 -82.0592 95° East 475 547 35,000  Level Indianapolis Center
08:34PM 37.8456 -81.8978 96° East 467 537 35,000  Level Indianapolis Center
08:35PM 37.8306 -81.7200 96° East 458 527 35,000  Level Indianapolis Center
08:36PM 37.8183 -81.5572 95° East 461 531 35,000  Level Indianapolis Center
08:37PM 37.8061 -81.4194 96° East 462 532 35,000  Level Indianapolis Center
08:38PM 37.7958 -81.3317 98° East 465 535 35,000  Level Washington Center
08:39PM 37.7831 -81.1650 95° East 465 535 35,000  Level Washington Center
08:40PM 37.7864 -81.0025 88° East 465 535 35,000  Level Washington Center
08:41PM 37.8006 -80.8194 84° East 465 535 35,000  Level Washington Center
08:42PM 37.8119 -80.6519 85° East 465 535 35,000  Level Washington Center
08:43PM 37.8231 -80.4844 85° East 472 543 35,000  Level Washington Center
08:44PM 37.8322 -80.3142 86° East 478 550 35,000  Level Washington Center
08:45PM 37.8422 -80.1622 85° East 478 550 35,000  Level Washington Center
08:46PM 37.8525 -79.9944 86° East 478 550 35,000  Level Washington Center
08:47PM 37.8631 -79.8242 85° East 478 550 35,000  Level Washington Center
08:48PM 37.8750 -79.6539 85° East 478 550 35,000  Level Washington Center
08:49PM 37.8850 -79.4806 86° East 478 550 35,000  Level Washington Center
08:50PM 37.8925 -79.3125 87° East 478 550 35,000  Level Washington Center
08:51PM 37.9044 -79.1236 85° East 483 556 35,000  Level Washington Center
08:52PM 37.9239 -78.9508 82° East 483 556 35,000  Level Washington Center
08:53PM 37.9433 -78.7806 82° East 483 556 35,000  Level Washington Center
08:54PM 37.9642 -78.6128 81° East 483 556 35,000  Level Washington Center
08:55PM 37.9828 -78.4556 81° East 483 556 35,000  Level Washington Center
08:56PM 38.0011 -78.2850 82° East 483 556 35,000  Level Washington Center
08:57PM 38.0178 -78.0958 84° East 483 556 35,000  Level Washington Center
08:58PM 38.0250 -77.9511 86° East 473 544 35,000  Level Washington Center
08:59PM 38.0364 -77.7800 85° East 473 544 35,000  Level Washington Center
09:00PM 38.0500 -77.6117 84° East 478 550 35,000  Level Washington Center
09:01PM 38.0817 -77.4489 76° East 483 556 35,000  Level Washington Center
09:02PM 38.1153 -77.2861 75° East 483 556 35,000  Level Washington Center
09:03PM 38.1514 -77.0994 76° East 490 564 35,000  Level Washington Center
09:04PM 38.1844 -76.9336 76° East 490 564 35,000  Level Washington Center
09:05PM 38.2156 -76.7678 77° East 485 558 35,000  Level Washington Center
09:06PM 38.2481 -76.6044 76° East 485 558 35,000  Level Washington Center
09:07PM 38.2828 -76.4356 75° East 485 558 35,000 -60 Level Washington Center
09:08PM 38.3733 -76.3200 45° Northeast 454 522 34,900 -1,020 Descending Washington Center
09:09PM 38.4800 -76.2228 35° Northeast 454 522 33,000 -1,740 Descending Washington Center
09:10PM 38.5639 -76.1414 37° Northeast 449 517 31,500 -1,860 Descending Washington Center
09:11PM 38.6831 -76.0331 35° Northeast 464 534 29,300 -2,100 Descending Washington Center
09:12PM 38.7878 -75.9353 36° Northeast 470 541 27,300 -1,200 Descending Washington Center
09:13PM 38.8964 -75.8369 35° Northeast 470 541 27,000 -180 Descending Washington Center
09:14PM 39.0008 -75.7386 36° Northeast 475 547 27,000 -360 Level Washington Center
09:15PM 39.1072 -75.6344 37° Northeast 475 547 26,300 -1,140 Descending Washington Center
09:16PM 39.2156 -75.5353 35° Northeast 475 547 24,800 -1,440 Descending Washington Center
09:17PM 39.3197 -75.4386 36° Northeast 475 547 23,400 -1,440 Descending Washington Center
09:18PM 39.4258 -75.3472 34° Northeast 470 541 21,900 -1,500 Descending Washington Center
09:19PM 39.5317 -75.2497 35° Northeast 470 541 20,500 -1,500 Descending Washington Center
09:20PM 39.6294 -75.1578 36° Northeast 454 522 19,000 -1,680 Descending Washington Center
09:21PM 39.7394 -75.0600 34° Northeast 437 503 17,200 -1,740 Descending Washington Center
09:22PM 39.8389 -74.9728 34° Northeast 426 490 15,500 -1,920 Descending Washington Center
09:24PM 40.0167 -74.7667 42° Northeast 391 450 11,400 -1,680 Descending New York TRACON
09:25PM 40.0833 -74.6667 49° Northeast 350 403 10,400 -720 Descending New York TRACON
09:26PM 40.1500 -74.5833 44° Northeast 309 356 10,000 -240 Descending New York TRACON
09:27PM 40.2000 -74.5000 52° Northeast 308 354 10,000 -300 Level New York TRACON
09:28PM 40.2667 -74.4333 37° Northeast 297 342 9,500 -1,080 Descending New York TRACON
09:29PM 40.3167 -74.3500 52° Northeast 297 342 7,900 -1,260 Descending New York TRACON
09:30PM 40.3833 -74.2833 37° Northeast 290 334 7,000 -600 Descending New York TRACON
09:32PM 40.4833 -74.1333 49° Northeast 283 326 6,100 -960 Descending New York TRACON
09:33PM 40.5500 -74.0833 30° Northeast 279 321 4,200 -1,560 Descending New York TRACON
09:34PM 40.6333 -74.0500 17° North 274 315 3,000 -420 Descending New York TRACON
09:36PM 40.7667 -73.9667 25° Northeast 252 290 3,000  Level New York TRACON
09:37PM 40.8167 -73.9333 27° Northeast 212 244 3,000  Level New York TRACON
09:38PM 40.8667 -73.9000 27° Northeast 211 243 3,000 -300 Level New York TRACON
09:39PM 40.9167 -73.8667 27° Northeast 213 245 2,400 -600 Descending New York TRACON
09:40PM 40.8833 -73.8167 131° Southeast 179 206 1,900 -540 Descending New York TRACON